createdAt,value
2022-10-06T00:02:42.792Z,95544
2022-10-06T00:06:07.851Z,95546
2022-10-06T00:09:33.028Z,95541
2022-10-06T00:12:58.224Z,95548
2022-10-06T00:16:23.442Z,95553
2022-10-06T00:19:48.549Z,95548
2022-10-06T00:23:13.736Z,95550
2022-10-06T00:26:38.911Z,95552
2022-10-06T00:30:04.117Z,95555
2022-10-06T00:33:29.259Z,95560
2022-10-06T00:36:54.415Z,95568
2022-10-06T00:40:19.648Z,95552
2022-10-06T00:43:44.822Z,95557
2022-10-06T00:47:10.024Z,95559
2022-10-06T00:50:35.183Z,95545
2022-10-06T00:54:00.373Z,95551
2022-10-06T00:57:25.566Z,95556
2022-10-06T01:00:50.831Z,95552
2022-10-06T01:04:16.047Z,95547
2022-10-06T01:07:41.196Z,95548
2022-10-06T01:11:06.362Z,95543
2022-10-06T01:14:31.525Z,95551
2022-10-06T01:17:56.705Z,95556
2022-10-06T01:21:21.921Z,95548
2022-10-06T01:24:47.041Z,95550
2022-10-06T01:28:12.273Z,95549
2022-10-06T01:31:37.466Z,95556
2022-10-06T01:35:02.576Z,95563
2022-10-06T01:38:28.158Z,95580
2022-10-06T01:41:52.916Z,95571
2022-10-06T01:45:18.076Z,95570
2022-10-06T01:48:43.245Z,95581
2022-10-06T01:52:08.418Z,95569
2022-10-06T01:55:33.629Z,95581
2022-10-06T01:58:58.773Z,95577
2022-10-06T02:02:23.961Z,95588
2022-10-06T02:05:49.125Z,95586
2022-10-06T02:09:14.286Z,95584
2022-10-06T02:12:39.510Z,95584
2022-10-06T02:16:04.699Z,95598
2022-10-06T02:19:29.803Z,95595
2022-10-06T02:22:54.977Z,95610
2022-10-06T02:26:20.147Z,95608
2022-10-06T02:29:45.344Z,95617
2022-10-06T02:33:10.457Z,95620
2022-10-06T02:36:35.612Z,95625
2022-10-06T02:40:00.786Z,95628
2022-10-06T02:43:25.962Z,95633
2022-10-06T02:46:51.198Z,95644
2022-10-06T02:50:16.281Z,95651
2022-10-06T02:53:41.455Z,95656
2022-10-06T02:57:06.638Z,95659
2022-10-06T03:00:31.814Z,95661
2022-10-06T03:03:57.081Z,95663
2022-10-06T03:07:22.138Z,95666
2022-10-06T03:10:47.349Z,95666
2022-10-06T03:14:12.475Z,95670
2022-10-06T03:17:37.661Z,95671
2022-10-06T03:21:02.867Z,95678
2022-10-06T03:24:28.010Z,95677
2022-10-06T03:27:53.191Z,95679
2022-10-06T03:31:18.415Z,95683
2022-10-06T03:34:43.509Z,95687
2022-10-06T03:38:08.705Z,95676
2022-10-06T03:41:33.843Z,95668
2022-10-06T03:44:58.998Z,95666
2022-10-06T03:48:24.151Z,95681
2022-10-06T03:51:49.315Z,95695
2022-10-06T03:55:14.545Z,95701
2022-10-06T03:58:39.600Z,95718
2022-10-06T04:02:04.999Z,95716
2022-10-06T04:05:30.090Z,95727
2022-10-06T04:08:55.232Z,95732
2022-10-06T04:12:20.403Z,95739
2022-10-06T04:15:45.584Z,95745
2022-10-06T04:19:10.740Z,95742
2022-10-06T04:22:35.964Z,95745
2022-10-06T04:26:01.149Z,95748
2022-10-06T04:29:26.332Z,95759
2022-10-06T04:32:51.486Z,95765
2022-10-06T04:36:16.668Z,95774
2022-10-06T04:39:41.926Z,95770
2022-10-06T04:43:07.101Z,95777
2022-10-06T04:46:47.878Z,95768
2022-10-06T04:49:57.443Z,95778
2022-10-06T04:53:22.604Z,95785
2022-10-06T04:56:47.773Z,95783
2022-10-06T05:00:15.003Z,95779
2022-10-06T05:03:38.214Z,95781
2022-10-06T05:07:03.250Z,95785
2022-10-06T05:10:28.439Z,95800
2022-10-06T05:13:53.614Z,95804
2022-10-06T05:17:18.742Z,95804
2022-10-06T05:20:43.951Z,95820
2022-10-06T05:24:09.120Z,95823
2022-10-06T05:27:34.294Z,95825
2022-10-06T05:30:59.453Z,95838
2022-10-06T05:34:24.610Z,95839
2022-10-06T05:37:49.810Z,95845
2022-10-06T05:41:14.927Z,95854
2022-10-06T05:44:40.082Z,95863
2022-10-06T05:48:05.265Z,95857
2022-10-06T05:51:31.312Z,95870
2022-10-06T05:54:55.660Z,95878
2022-10-06T05:58:20.799Z,95890
2022-10-06T06:01:45.992Z,95894
2022-10-06T06:05:11.151Z,95908
2022-10-06T06:08:36.362Z,95911
2022-10-06T06:12:01.559Z,95915
2022-10-06T06:15:26.765Z,95913
2022-10-06T06:18:51.954Z,95913
2022-10-06T06:22:17.097Z,95913
2022-10-06T06:25:42.380Z,95920
2022-10-06T06:29:07.667Z,95927
2022-10-06T06:32:32.746Z,95934
2022-10-06T06:35:57.936Z,95943
2022-10-06T06:39:23.133Z,95950
2022-10-06T06:42:52.997Z,95959
2022-10-06T06:46:13.709Z,95967
2022-10-06T06:49:38.767Z,95968
2022-10-06T06:53:03.946Z,95988
2022-10-06T06:56:29.154Z,95994
2022-10-06T06:59:54.402Z,95997
2022-10-06T07:03:32.880Z,96007
2022-10-06T07:06:44.817Z,96013
2022-10-06T07:10:10.011Z,96023
2022-10-06T07:13:35.232Z,96023
2022-10-06T07:17:00.460Z,96019
2022-10-06T07:20:25.766Z,96024
2022-10-06T07:23:50.823Z,96030
2022-10-06T07:27:16.012Z,96050
2022-10-06T07:30:41.260Z,96067
2022-10-06T07:34:06.446Z,96078
2022-10-06T07:37:31.693Z,96078
2022-10-06T07:41:19.195Z,96079
2022-10-06T07:44:21.982Z,96089
2022-10-06T07:47:47.200Z,96091
2022-10-06T07:51:12.365Z,96100
2022-10-06T07:54:37.590Z,96103
2022-10-06T07:58:02.756Z,96108
2022-10-06T08:01:27.979Z,96110
2022-10-06T08:04:53.474Z,96123
2022-10-06T08:08:18.394Z,96124
2022-10-06T08:11:43.587Z,96130
2022-10-06T08:15:08.788Z,96129
2022-10-06T08:18:45.786Z,96133
2022-10-06T08:22:03.793Z,96144
2022-10-06T08:25:24.362Z,96147
2022-10-06T08:28:49.595Z,96152
2022-10-06T08:32:14.754Z,96158
2022-10-06T08:35:39.982Z,96153
2022-10-06T08:39:05.212Z,96164
2022-10-06T08:42:30.391Z,96161
2022-10-06T08:45:55.892Z,96167
2022-10-06T08:49:20.847Z,96177
2022-10-06T08:52:46.033Z,96190
2022-10-06T08:56:11.179Z,96190
2022-10-06T08:59:36.332Z,96192
2022-10-06T09:03:01.551Z,96191
2022-10-06T09:06:26.731Z,96186
2022-10-06T09:09:52.040Z,96183
2022-10-06T09:13:21.039Z,96185
2022-10-06T09:16:42.403Z,96189
2022-10-06T09:20:07.642Z,96190
2022-10-06T09:23:32.827Z,96192
2022-10-06T09:26:58.014Z,96195
2022-10-06T09:30:23.196Z,96200
2022-10-06T09:33:48.412Z,96202
2022-10-06T09:37:13.664Z,96200
2022-10-06T09:40:38.797Z,96210
2022-10-06T09:44:03.973Z,96207
2022-10-06T09:47:29.202Z,96203
2022-10-06T09:50:54.421Z,96206
2022-10-06T09:54:19.657Z,96211
2022-10-06T09:57:44.821Z,96212
2022-10-06T10:01:10.117Z,96215
2022-10-06T10:04:35.218Z,96227
2022-10-06T10:08:00.413Z,96222
2022-10-06T10:11:25.686Z,96222
2022-10-06T10:14:50.842Z,96216
2022-10-06T10:18:16.015Z,96223
2022-10-06T10:21:41.199Z,96222
2022-10-06T10:25:06.459Z,96232
2022-10-06T10:28:31.774Z,96237
2022-10-06T10:31:56.848Z,96237
2022-10-06T10:35:22.199Z,96239
2022-10-06T10:38:47.401Z,96249
2022-10-06T10:42:12.539Z,96244
2022-10-06T10:45:37.725Z,96244
2022-10-06T10:49:02.909Z,96240
2022-10-06T10:52:28.238Z,96249
2022-10-06T10:55:53.459Z,96250
2022-10-06T10:59:18.626Z,96250
2022-10-06T11:02:43.815Z,96245
2022-10-06T11:06:09.013Z,96250
2022-10-06T11:09:34.117Z,96248
2022-10-06T11:12:59.275Z,96247
2022-10-06T11:16:24.603Z,96249
2022-10-06T11:19:49.771Z,96244
2022-10-06T11:23:15.027Z,96249
2022-10-06T11:26:40.219Z,96246
2022-10-06T11:30:05.352Z,96247
2022-10-06T11:33:33.443Z,96242
2022-10-06T11:36:58.659Z,96244
2022-10-06T11:40:23.785Z,96240
2022-10-06T11:43:48.971Z,96244
2022-10-06T11:47:14.151Z,96237
2022-10-06T11:50:39.318Z,96233
2022-10-06T11:54:04.562Z,96238
2022-10-06T11:57:31.319Z,96238
2022-10-06T12:00:54.895Z,96241
2022-10-06T12:04:24.243Z,96239
2022-10-06T12:07:45.276Z,96238
2022-10-06T12:11:10.469Z,96240
2022-10-06T12:18:00.940Z,96242
2022-10-06T12:21:26.109Z,96234
2022-10-06T12:24:51.300Z,96234
2022-10-06T12:28:16.571Z,96236
2022-10-06T12:31:41.724Z,96236
2022-10-06T12:35:06.889Z,96227
2022-10-06T12:38:32.053Z,96219
2022-10-06T12:41:57.306Z,96222
2022-10-06T12:45:22.549Z,96224
2022-10-06T12:48:47.700Z,96223
2022-10-06T12:52:12.867Z,96222
2022-10-06T12:55:38.042Z,96220
2022-10-06T12:59:03.236Z,96219
2022-10-06T13:02:28.532Z,96224
2022-10-06T13:05:53.608Z,96226
2022-10-06T13:09:18.826Z,96226
2022-10-06T13:12:43.990Z,96230
2022-10-06T13:16:09.176Z,96229
2022-10-06T13:19:34.450Z,96228
2022-10-06T13:22:59.523Z,96228
2022-10-06T13:26:24.702Z,96226
2022-10-06T13:29:49.894Z,96224
2022-10-06T13:33:15.117Z,96222
2022-10-06T13:36:40.339Z,96216
2022-10-06T13:40:12.153Z,96220
2022-10-06T13:43:30.666Z,96224
2022-10-06T13:46:55.876Z,96223
2022-10-06T13:50:21.026Z,96224
2022-10-06T13:53:46.233Z,96225
2022-10-06T13:57:11.388Z,96227
2022-10-06T14:00:36.598Z,96230
2022-10-06T14:04:01.769Z,96224
2022-10-06T14:07:26.934Z,96227
2022-10-06T14:10:52.154Z,96219
2022-10-06T14:14:17.297Z,96224
2022-10-06T14:17:42.555Z,96227
2022-10-06T14:21:07.746Z,96227
2022-10-06T14:24:32.912Z,96224
2022-10-06T14:27:58.115Z,96218
2022-10-06T15:04:47.725Z,96233
2022-10-06T15:08:12.938Z,96239
2022-10-06T15:11:38.116Z,96239
2022-10-06T15:15:03.307Z,96246
2022-10-06T15:18:28.495Z,96238
2022-10-06T15:21:53.693Z,96236
2022-10-06T15:25:18.871Z,96235
2022-10-06T15:28:44.103Z,96238
2022-10-06T15:32:09.265Z,96243
2022-10-06T15:35:34.467Z,96241
2022-10-06T15:38:59.733Z,96239
2022-10-06T15:42:24.862Z,96239
2022-10-06T15:45:50.054Z,96236
2022-10-06T15:49:15.273Z,96244
2022-10-06T15:52:41.075Z,96240
2022-10-06T15:56:06.292Z,96243
2022-10-06T15:59:31.423Z,96245
2022-10-06T16:02:56.703Z,96238
2022-10-06T16:06:21.879Z,96241
2022-10-06T16:09:47.074Z,96242
2022-10-06T16:13:12.278Z,96246
2022-10-06T16:16:41.245Z,96248
2022-10-06T16:20:02.585Z,96248
2022-10-06T16:23:27.791Z,96251
2022-10-06T16:26:52.986Z,96250
2022-10-06T16:30:18.235Z,96258
2022-10-06T16:33:43.388Z,96265
2022-10-06T16:37:08.571Z,96262
2022-10-06T16:40:33.811Z,96258
2022-10-06T16:43:59.006Z,96262
2022-10-06T16:47:24.211Z,96264
2022-10-06T16:50:49.378Z,96270
2022-10-06T16:54:14.541Z,96275
2022-10-06T16:57:39.711Z,96274
2022-10-06T17:01:05.335Z,96276
2022-10-06T17:04:30.552Z,96280
2022-10-06T17:07:59.113Z,96285
2022-10-06T17:11:20.904Z,96285
2022-10-06T17:14:46.126Z,96286
2022-10-06T17:18:11.315Z,96289
2022-10-06T17:21:57.591Z,96290
2022-10-06T17:25:01.733Z,96294
2022-10-06T17:28:26.952Z,96293
2022-10-06T17:31:52.203Z,96298
2022-10-06T17:35:17.307Z,96300
2022-10-06T17:38:42.516Z,96296
2022-10-06T17:42:07.673Z,96297
2022-10-06T17:45:32.884Z,96300
2022-10-06T17:48:58.002Z,96307
2022-10-06T17:52:24.427Z,96304
2022-10-06T17:55:48.637Z,96305
2022-10-06T17:59:13.890Z,96309
2022-10-06T18:02:39.383Z,96298
2022-10-06T18:06:04.457Z,96302
2022-10-06T18:09:29.673Z,96295
2022-10-06T18:12:54.994Z,96297
2022-10-06T18:16:20.264Z,96303
2022-10-06T18:19:45.559Z,96305
2022-10-06T18:23:10.868Z,96307
2022-10-06T18:26:36.183Z,96306
2022-10-06T18:30:01.494Z,96311
2022-10-06T18:36:52.080Z,96298
2022-10-06T18:40:17.372Z,96300
2022-10-06T18:43:42.643Z,96293
2022-10-06T18:47:08.001Z,96301
2022-10-06T18:50:33.249Z,96296
2022-10-06T18:53:58.555Z,96295
2022-10-06T18:57:27.412Z,96297
2022-10-06T19:00:49.160Z,96300
2022-10-06T19:04:14.421Z,96302
2022-10-06T19:07:40.031Z,96301
2022-10-06T19:11:04.986Z,96297
2022-10-06T19:14:30.275Z,96299
2022-10-06T19:17:55.574Z,96304
2022-10-06T19:21:20.900Z,96309
2022-10-06T19:24:46.104Z,96304
2022-10-06T19:28:11.429Z,96306
2022-10-06T19:31:36.684Z,96309
2022-10-06T19:35:04.278Z,96316
2022-10-06T19:38:27.261Z,96312
2022-10-06T19:41:52.494Z,96316
2022-10-06T19:45:17.815Z,96308
2022-10-06T19:48:45.361Z,96309
2022-10-06T19:52:10.631Z,96309
2022-10-06T19:55:36.002Z,96315
2022-10-06T19:59:01.385Z,96314
2022-10-06T20:02:26.725Z,96318
2022-10-06T20:05:51.961Z,96317
2022-10-06T20:09:17.292Z,96316
2022-10-06T20:12:42.601Z,96313
2022-10-06T20:16:07.805Z,96318
2022-10-06T20:19:33.045Z,96311
2022-10-06T20:22:58.262Z,96314
2022-10-06T20:26:23.479Z,96320
2022-10-06T20:29:48.740Z,96318
2022-10-06T20:33:13.944Z,96317
2022-10-06T20:36:39.175Z,96320
2022-10-06T20:40:04.458Z,96318
2022-10-06T20:43:29.718Z,96321
2022-10-06T20:46:54.984Z,96324
2022-10-06T20:50:20.185Z,96326
2022-10-06T20:53:45.452Z,96320
2022-10-06T20:57:10.679Z,96314
2022-10-06T21:00:36.070Z,96308
2022-10-06T21:04:01.803Z,96312
2022-10-06T21:07:27.558Z,96308
2022-10-06T21:10:53.272Z,96303
2022-10-06T21:14:18.977Z,96302
2022-10-06T21:17:44.949Z,96300
2022-10-06T21:21:10.418Z,96300
2022-10-06T21:24:36.109Z,96298
2022-10-06T21:28:01.884Z,96302
2022-10-06T21:31:43.211Z,96298
2022-10-06T21:35:22.422Z,96288
2022-10-06T21:38:49.981Z,96287
2022-10-06T21:42:15.712Z,96287
2022-10-06T21:45:41.424Z,96287
2022-10-06T21:49:07.134Z,96285
2022-10-06T21:52:32.881Z,96280
2022-10-06T21:55:58.626Z,96275
2022-10-06T21:59:24.320Z,96277
2022-10-06T22:02:50.035Z,96275
2022-10-06T22:06:19.239Z,96274
2022-10-06T22:09:41.420Z,96271
2022-10-06T22:13:07.162Z,96278
2022-10-06T22:16:32.947Z,96276
2022-10-06T22:19:58.536Z,96276
2022-10-06T22:23:24.241Z,96274
2022-10-06T22:26:49.957Z,96274
2022-10-06T22:30:15.795Z,96271
2022-10-06T22:33:41.390Z,96277
2022-10-06T22:37:07.106Z,96278
2022-10-06T22:40:32.808Z,96276
2022-10-06T22:43:58.528Z,96281
2022-10-06T22:47:24.273Z,96272
2022-10-06T22:50:49.918Z,96269
2022-10-06T22:54:15.632Z,96263
2022-10-06T22:57:41.624Z,96261
2022-10-06T23:01:07.096Z,96260
2022-10-06T23:04:32.781Z,96253
2022-10-06T23:07:58.457Z,96244
2022-10-06T23:11:24.150Z,96241
2022-10-06T23:14:49.867Z,96242
2022-10-06T23:18:15.591Z,96239
2022-10-06T23:21:41.305Z,96237
2022-10-06T23:25:06.993Z,96229
2022-10-06T23:28:32.754Z,96231
2022-10-06T23:31:58.491Z,96231
2022-10-06T23:35:24.148Z,96223
2022-10-06T23:38:49.877Z,96226
2022-10-06T23:42:15.589Z,96229
2022-10-06T23:45:41.393Z,96225
2022-10-06T23:49:06.985Z,96226
2022-10-06T23:52:32.709Z,96223
2022-10-06T23:55:58.465Z,96221
2022-10-06T23:59:24.149Z,96220
